sensor_id;sensor_type;location;lat;lon;timestamp;P1;durP1;ratioP1;P2;durP2;ratioP2
65358;SDS011;52491;45.900;6.346;2023-07-13T00:01:50;3.03;;;2.72;;
65358;SDS011;52491;45.900;6.346;2023-07-13T00:04:17;5.47;;;2.75;;
65358;SDS011;52491;45.900;6.346;2023-07-13T00:06:44;2.88;;;2.47;;
65358;SDS011;52491;45.900;6.346;2023-07-13T00:09:14;2.53;;;2.30;;
65358;SDS011;52491;45.900;6.346;2023-07-13T00:11:42;5.43;;;2.72;;
65358;SDS011;52491;45.900;6.346;2023-07-13T00:14:08;4.68;;;2.63;;
65358;SDS011;52491;45.900;6.346;2023-07-13T00:16:36;5.32;;;2.70;;
65358;SDS011;52491;45.900;6.346;2023-07-13T00:19:03;4.95;;;3.25;;
65358;SDS011;52491;45.900;6.346;2023-07-13T00:21:30;3.92;;;2.55;;
65358;SDS011;52491;45.900;6.346;2023-07-13T00:23:55;3.67;;;2.50;;
65358;SDS011;52491;45.900;6.346;2023-07-13T00:26:21;5.32;;;2.50;;
65358;SDS011;52491;45.900;6.346;2023-07-13T00:28:47;5.93;;;2.50;;
65358;SDS011;52491;45.900;6.346;2023-07-13T00:31:12;5.07;;;2.88;;
65358;SDS011;52491;45.900;6.346;2023-07-13T00:33:39;3.28;;;2.72;;
65358;SDS011;52491;45.900;6.346;2023-07-13T00:36:05;4.50;;;2.38;;
65358;SDS011;52491;45.900;6.346;2023-07-13T00:38:32;2.67;;;2.47;;
65358;SDS011;52491;45.900;6.346;2023-07-13T00:40:57;2.70;;;2.28;;
65358;SDS011;52491;45.900;6.346;2023-07-13T00:43:24;2.95;;;2.28;;
65358;SDS011;52491;45.900;6.346;2023-07-13T00:48:18;2.78;;;2.00;;
65358;SDS011;52491;45.900;6.346;2023-07-13T00:50:47;3.13;;;2.78;;
65358;SDS011;52491;45.900;6.346;2023-07-13T00:53:16;2.63;;;2.05;;
65358;SDS011;52491;45.900;6.346;2023-07-13T00:55:43;4.70;;;2.40;;
65358;SDS011;52491;45.900;6.346;2023-07-13T00:58:10;2.28;;;1.90;;
65358;SDS011;52491;45.900;6.346;2023-07-13T01:00:35;2.63;;;1.92;;
65358;SDS011;52491;45.900;6.346;2023-07-13T01:03:03;2.40;;;2.05;;
65358;SDS011;52491;45.900;6.346;2023-07-13T01:05:29;3.55;;;2.08;;
65358;SDS011;52491;45.900;6.346;2023-07-13T01:07:57;3.60;;;2.40;;
65358;SDS011;52491;45.900;6.346;2023-07-13T01:10:24;2.47;;;2.28;;
65358;SDS011;52491;45.900;6.346;2023-07-13T01:12:50;2.60;;;2.35;;
65358;SDS011;52491;45.900;6.346;2023-07-13T01:18:07;2.83;;;2.58;;
65358;SDS011;52491;45.900;6.346;2023-07-13T01:20:35;2.58;;;2.13;;
65358;SDS011;52491;45.900;6.346;2023-07-13T01:23:03;4.82;;;1.80;;
65358;SDS011;52491;45.900;6.346;2023-07-13T01:25:34;3.55;;;1.80;;
65358;SDS011;52491;45.900;6.346;2023-07-13T01:28:01;3.45;;;1.77;;
65358;SDS011;52491;45.900;6.346;2023-07-13T01:30:28;3.42;;;2.20;;
65358;SDS011;52491;45.900;6.346;2023-07-13T01:32:54;2.88;;;1.70;;
65358;SDS011;52491;45.900;6.346;2023-07-13T01:35:20;4.28;;;1.90;;
65358;SDS011;52491;45.900;6.346;2023-07-13T01:37:46;8.02;;;2.35;;
65358;SDS011;52491;45.900;6.346;2023-07-13T01:40:12;3.88;;;2.08;;
65358;SDS011;52491;45.900;6.346;2023-07-13T01:42:38;1.90;;;1.45;;
65358;SDS011;52491;45.900;6.346;2023-07-13T01:45:03;4.13;;;2.00;;
65358;SDS011;52491;45.900;6.346;2023-07-13T01:47:30;4.25;;;2.08;;
65358;SDS011;52491;45.900;6.346;2023-07-13T01:49:59;6.32;;;2.22;;
65358;SDS011;52491;45.900;6.346;2023-07-13T01:52:24;1.50;;;1.35;;
65358;SDS011;52491;45.900;6.346;2023-07-13T01:54:50;2.50;;;2.03;;
65358;SDS011;52491;45.900;6.346;2023-07-13T01:57:16;1.85;;;1.60;;
65358;SDS011;52491;45.900;6.346;2023-07-13T01:59:41;2.67;;;1.67;;
65358;SDS011;52491;45.900;6.346;2023-07-13T02:02:07;2.22;;;1.52;;
65358;SDS011;52491;45.900;6.346;2023-07-13T02:04:33;3.28;;;1.77;;
65358;SDS011;52491;45.900;6.346;2023-07-13T02:06:59;2.38;;;1.40;;
65358;SDS011;52491;45.900;6.346;2023-07-13T02:09:24;5.63;;;1.67;;
65358;SDS011;52491;45.900;6.346;2023-07-13T02:11:50;4.88;;;2.30;;
65358;SDS011;52491;45.900;6.346;2023-07-13T02:14:16;1.92;;;1.73;;
65358;SDS011;52491;45.900;6.346;2023-07-13T02:16:42;4.35;;;1.55;;
65358;SDS011;52491;45.900;6.346;2023-07-13T02:19:07;3.33;;;2.08;;
65358;SDS011;52491;45.900;6.346;2023-07-13T02:21:33;3.08;;;1.30;;
65358;SDS011;52491;45.900;6.346;2023-07-13T02:23:59;4.90;;;1.63;;
65358;SDS011;52491;45.900;6.346;2023-07-13T02:26:25;3.25;;;1.83;;
65358;SDS011;52491;45.900;6.346;2023-07-13T02:28:51;2.67;;;1.98;;
65358;SDS011;52491;45.900;6.346;2023-07-13T02:31:17;3.70;;;1.60;;
65358;SDS011;52491;45.900;6.346;2023-07-13T02:33:43;2.92;;;1.60;;
65358;SDS011;52491;45.900;6.346;2023-07-13T02:36:09;3.15;;;1.92;;
65358;SDS011;52491;45.900;6.346;2023-07-13T02:38:35;3.33;;;2.10;;
65358;SDS011;52491;45.900;6.346;2023-07-13T02:41:02;4.35;;;1.65;;
65358;SDS011;52491;45.900;6.346;2023-07-13T02:43:28;5.47;;;1.95;;
65358;SDS011;52491;45.900;6.346;2023-07-13T02:45:54;3.80;;;1.08;;
65358;SDS011;52491;45.900;6.346;2023-07-13T02:48:20;1.50;;;1.40;;
65358;SDS011;52491;45.900;6.346;2023-07-13T02:50:46;4.32;;;2.08;;
65358;SDS011;52491;45.900;6.346;2023-07-13T02:53:11;2.33;;;1.77;;
65358;SDS011;52491;45.900;6.346;2023-07-13T02:55:37;2.17;;;1.77;;
65358;SDS011;52491;45.900;6.346;2023-07-13T02:58:03;4.18;;;1.88;;
65358;SDS011;52491;45.900;6.346;2023-07-13T03:00:28;2.40;;;1.77;;
65358;SDS011;52491;45.900;6.346;2023-07-13T03:02:54;3.05;;;1.60;;
65358;SDS011;52491;45.900;6.346;2023-07-13T03:05:22;2.15;;;1.35;;
65358;SDS011;52491;45.900;6.346;2023-07-13T03:07:49;5.10;;;1.80;;
65358;SDS011;52491;45.900;6.346;2023-07-13T03:10:15;7.25;;;1.35;;
65358;SDS011;52491;45.900;6.346;2023-07-13T03:12:41;4.45;;;1.92;;
65358;SDS011;52491;45.900;6.346;2023-07-13T03:15:07;4.70;;;1.65;;
65358;SDS011;52491;45.900;6.346;2023-07-13T03:17:33;3.28;;;1.48;;
65358;SDS011;52491;45.900;6.346;2023-07-13T03:19:59;6.40;;;1.40;;
65358;SDS011;52491;45.900;6.346;2023-07-13T03:22:24;4.00;;;1.42;;
65358;SDS011;52491;45.900;6.346;2023-07-13T03:24:50;1.55;;;1.45;;
65358;SDS011;52491;45.900;6.346;2023-07-13T03:27:16;1.95;;;1.77;;
65358;SDS011;52491;45.900;6.346;2023-07-13T03:29:42;3.40;;;1.42;;
65358;SDS011;52491;45.900;6.346;2023-07-13T03:32:08;3.67;;;1.33;;
65358;SDS011;52491;45.900;6.346;2023-07-13T03:34:33;5.47;;;1.33;;
65358;SDS011;52491;45.900;6.346;2023-07-13T03:36:59;16.45;;;7.97;;
65358;SDS011;52491;45.900;6.346;2023-07-13T03:39:24;8.32;;;4.68;;
65358;SDS011;52491;45.900;6.346;2023-07-13T03:41:50;8.60;;;3.83;;
65358;SDS011;52491;45.900;6.346;2023-07-13T03:44:16;6.25;;;3.30;;
65358;SDS011;52491;45.900;6.346;2023-07-13T03:46:43;4.38;;;3.17;;
65358;SDS011;52491;45.900;6.346;2023-07-13T03:49:09;6.18;;;2.88;;
65358;SDS011;52491;45.900;6.346;2023-07-13T03:51:36;4.80;;;2.80;;
65358;SDS011;52491;45.900;6.346;2023-07-13T03:54:02;8.30;;;3.70;;
65358;SDS011;52491;45.900;6.346;2023-07-13T03:56:28;4.50;;;2.20;;
65358;SDS011;52491;45.900;6.346;2023-07-13T03:58:55;6.97;;;2.58;;
65358;SDS011;52491;45.900;6.346;2023-07-13T04:01:22;5.13;;;2.55;;
65358;SDS011;52491;45.900;6.346;2023-07-13T04:03:50;5.13;;;2.03;;
65358;SDS011;52491;45.900;6.346;2023-07-13T04:06:20;4.22;;;2.45;;
65358;SDS011;52491;45.900;6.346;2023-07-13T04:08:50;2.95;;;2.45;;
65358;SDS011;52491;45.900;6.346;2023-07-13T04:11:18;4.13;;;2.38;;
65358;SDS011;52491;45.900;6.346;2023-07-13T04:13:45;5.38;;;2.83;;
65358;SDS011;52491;45.900;6.346;2023-07-13T04:16:13;7.38;;;2.25;;
65358;SDS011;52491;45.900;6.346;2023-07-13T04:18:40;6.10;;;1.85;;
65358;SDS011;52491;45.900;6.346;2023-07-13T04:21:06;4.05;;;2.63;;
65358;SDS011;52491;45.900;6.346;2023-07-13T04:23:32;4.00;;;2.63;;
65358;SDS011;52491;45.900;6.346;2023-07-13T04:25:59;5.32;;;2.47;;
65358;SDS011;52491;45.900;6.346;2023-07-13T04:28:25;2.85;;;2.40;;
65358;SDS011;52491;45.900;6.346;2023-07-13T04:30:51;2.72;;;1.83;;
65358;SDS011;52491;45.900;6.346;2023-07-13T04:33:16;4.38;;;1.90;;
65358;SDS011;52491;45.900;6.346;2023-07-13T04:35:45;3.58;;;1.90;;
65358;SDS011;52491;45.900;6.346;2023-07-13T04:38:13;8.55;;;2.92;;
65358;SDS011;52491;45.900;6.346;2023-07-13T04:40:42;3.00;;;2.55;;
65358;SDS011;52491;45.900;6.346;2023-07-13T04:43:09;4.22;;;2.17;;
65358;SDS011;52491;45.900;6.346;2023-07-13T04:45:36;3.55;;;2.42;;
65358;SDS011;52491;45.900;6.346;2023-07-13T04:48:01;5.53;;;2.13;;
65358;SDS011;52491;45.900;6.346;2023-07-13T04:50:27;6.68;;;2.38;;
65358;SDS011;52491;45.900;6.346;2023-07-13T04:52:53;2.92;;;2.03;;
65358;SDS011;52491;45.900;6.346;2023-07-13T04:55:19;8.52;;;2.20;;
65358;SDS011;52491;45.900;6.346;2023-07-13T04:57:46;4.68;;;2.42;;
65358;SDS011;52491;45.900;6.346;2023-07-13T05:00:12;2.72;;;1.90;;
65358;SDS011;52491;45.900;6.346;2023-07-13T05:02:40;5.75;;;2.17;;
65358;SDS011;52491;45.900;6.346;2023-07-13T05:05:09;6.97;;;2.03;;
65358;SDS011;52491;45.900;6.346;2023-07-13T05:07:35;2.95;;;2.55;;
65358;SDS011;52491;45.900;6.346;2023-07-13T05:10:00;5.43;;;2.58;;
65358;SDS011;52491;45.900;6.346;2023-07-13T05:12:26;3.83;;;1.88;;
65358;SDS011;52491;45.900;6.346;2023-07-13T05:14:52;6.60;;;1.98;;
65358;SDS011;52491;45.900;6.346;2023-07-13T05:17:17;2.47;;;1.95;;
65358;SDS011;52491;45.900;6.346;2023-07-13T05:19:43;2.83;;;2.10;;
65358;SDS011;52491;45.900;6.346;2023-07-13T05:22:09;3.33;;;1.88;;
65358;SDS011;52491;45.900;6.346;2023-07-13T05:24:35;7.70;;;2.35;;
65358;SDS011;52491;45.900;6.346;2023-07-13T05:27:01;3.70;;;2.22;;
65358;SDS011;52491;45.900;6.346;2023-07-13T05:29:26;3.38;;;1.73;;
65358;SDS011;52491;45.900;6.346;2023-07-13T05:31:52;4.63;;;2.28;;
65358;SDS011;52491;45.900;6.346;2023-07-13T05:34:18;4.10;;;2.15;;
65358;SDS011;52491;45.900;6.346;2023-07-13T05:36:43;6.60;;;2.28;;
65358;SDS011;52491;45.900;6.346;2023-07-13T05:39:09;5.38;;;1.85;;
65358;SDS011;52491;45.900;6.346;2023-07-13T05:41:35;3.53;;;2.17;;
65358;SDS011;52491;45.900;6.346;2023-07-13T05:44:01;3.85;;;2.33;;
65358;SDS011;52491;45.900;6.346;2023-07-13T05:46:26;6.95;;;2.20;;
65358;SDS011;52491;45.900;6.346;2023-07-13T05:48:52;4.85;;;2.42;;
65358;SDS011;52491;45.900;6.346;2023-07-13T05:51:18;10.88;;;2.85;;
65358;SDS011;52491;45.900;6.346;2023-07-13T05:53:43;3.05;;;1.70;;
65358;SDS011;52491;45.900;6.346;2023-07-13T05:56:09;3.25;;;1.88;;
65358;SDS011;52491;45.900;6.346;2023-07-13T05:58:34;7.28;;;1.83;;
65358;SDS011;52491;45.900;6.346;2023-07-13T06:01:01;6.65;;;2.55;;
65358;SDS011;52491;45.900;6.346;2023-07-13T06:03:29;1.95;;;1.75;;
65358;SDS011;52491;45.900;6.346;2023-07-13T06:05:54;4.65;;;2.58;;
65358;SDS011;52491;45.900;6.346;2023-07-13T06:08:20;3.15;;;1.77;;
65358;SDS011;52491;45.900;6.346;2023-07-13T06:10:46;6.13;;;2.13;;
65358;SDS011;52491;45.900;6.346;2023-07-13T06:13:11;4.70;;;1.83;;
65358;SDS011;52491;45.900;6.346;2023-07-13T06:15:37;3.83;;;1.98;;
65358;SDS011;52491;45.900;6.346;2023-07-13T06:18:02;3.63;;;2.22;;
65358;SDS011;52491;45.900;6.346;2023-07-13T06:20:28;4.78;;;1.85;;
65358;SDS011;52491;45.900;6.346;2023-07-13T06:22:54;4.40;;;2.22;;
65358;SDS011;52491;45.900;6.346;2023-07-13T06:25:19;1.95;;;1.50;;
65358;SDS011;52491;45.900;6.346;2023-07-13T06:27:45;3.85;;;1.45;;
65358;SDS011;52491;45.900;6.346;2023-07-13T06:30:11;1.50;;;1.20;;
65358;SDS011;52491;45.900;6.346;2023-07-13T06:32:37;2.55;;;1.10;;
65358;SDS011;52491;45.900;6.346;2023-07-13T06:35:03;1.42;;;1.00;;
65358;SDS011;52491;45.900;6.346;2023-07-13T06:37:29;1.30;;;0.80;;
65358;SDS011;52491;45.900;6.346;2023-07-13T06:39:54;5.07;;;1.00;;
65358;SDS011;52491;45.900;6.346;2023-07-13T06:42:20;2.85;;;0.90;;
65358;SDS011;52491;45.900;6.346;2023-07-13T06:44:46;1.83;;;0.80;;
65358;SDS011;52491;45.900;6.346;2023-07-13T06:47:11;3.50;;;1.00;;
65358;SDS011;52491;45.900;6.346;2023-07-13T06:49:37;2.53;;;0.60;;
65358;SDS011;52491;45.900;6.346;2023-07-13T06:52:02;1.45;;;0.80;;
65358;SDS011;52491;45.900;6.346;2023-07-13T06:54:29;1.42;;;0.77;;
65358;SDS011;52491;45.900;6.346;2023-07-13T06:56:54;1.27;;;1.00;;
65358;SDS011;52491;45.900;6.346;2023-07-13T06:59:20;5.93;;;1.05;;
65358;SDS011;52491;45.900;6.346;2023-07-13T07:01:45;2.30;;;0.80;;
65358;SDS011;52491;45.900;6.346;2023-07-13T07:04:11;1.45;;;0.80;;
65358;SDS011;52491;45.900;6.346;2023-07-13T07:06:37;2.28;;;0.77;;
65358;SDS011;52491;45.900;6.346;2023-07-13T07:09:02;1.60;;;0.75;;
65358;SDS011;52491;45.900;6.346;2023-07-13T07:11:28;3.67;;;1.30;;
65358;SDS011;52491;45.900;6.346;2023-07-13T07:13:54;5.40;;;1.17;;
65358;SDS011;52491;45.900;6.346;2023-07-13T07:16:20;0.75;;;0.68;;
65358;SDS011;52491;45.900;6.346;2023-07-13T07:18:46;1.90;;;0.88;;
65358;SDS011;52491;45.900;6.346;2023-07-13T07:21:13;1.50;;;1.23;;
65358;SDS011;52491;45.900;6.346;2023-07-13T07:23:39;5.38;;;0.63;;
65358;SDS011;52491;45.900;6.346;2023-07-13T07:26:05;2.53;;;0.98;;
65358;SDS011;52491;45.900;6.346;2023-07-13T07:28:33;1.35;;;0.77;;
65358;SDS011;52491;45.900;6.346;2023-07-13T07:30:59;2.70;;;0.80;;
65358;SDS011;52491;45.900;6.346;2023-07-13T07:33:25;6.03;;;1.25;;
65358;SDS011;52491;45.900;6.346;2023-07-13T07:35:51;2.50;;;0.65;;
65358;SDS011;52491;45.900;6.346;2023-07-13T07:38:16;2.63;;;0.70;;
65358;SDS011;52491;45.900;6.346;2023-07-13T07:40:42;1.95;;;1.00;;
65358;SDS011;52491;45.900;6.346;2023-07-13T07:43:09;5.30;;;0.68;;
65358;SDS011;52491;45.900;6.346;2023-07-13T07:45:36;2.33;;;0.80;;
65358;SDS011;52491;45.900;6.346;2023-07-13T07:48:03;3.13;;;1.13;;
65358;SDS011;52491;45.900;6.346;2023-07-13T07:50:29;1.42;;;0.60;;
65358;SDS011;52491;45.900;6.346;2023-07-13T07:52:56;1.48;;;1.00;;
65358;SDS011;52491;45.900;6.346;2023-07-13T07:55:22;2.88;;;1.05;;
65358;SDS011;52491;45.900;6.346;2023-07-13T07:57:48;5.97;;;1.25;;
65358;SDS011;52491;45.900;6.346;2023-07-13T08:00:14;4.85;;;0.70;;
65358;SDS011;52491;45.900;6.346;2023-07-13T08:02:41;5.70;;;1.35;;
65358;SDS011;52491;45.900;6.346;2023-07-13T08:05:07;1.55;;;0.85;;
65358;SDS011;52491;45.900;6.346;2023-07-13T08:07:34;3.92;;;0.80;;
65358;SDS011;52491;45.900;6.346;2023-07-13T08:10:00;3.60;;;1.02;;
65358;SDS011;52491;45.900;6.346;2023-07-13T08:12:26;2.33;;;1.00;;
65358;SDS011;52491;45.900;6.346;2023-07-13T08:14:52;1.63;;;1.00;;
65358;SDS011;52491;45.900;6.346;2023-07-13T08:17:19;1.38;;;0.70;;
65358;SDS011;52491;45.900;6.346;2023-07-13T08:19:45;1.35;;;0.88;;
65358;SDS011;52491;45.900;6.346;2023-07-13T08:22:11;3.65;;;0.82;;
65358;SDS011;52491;45.900;6.346;2023-07-13T08:24:37;5.45;;;0.95;;
65358;SDS011;52491;45.900;6.346;2023-07-13T08:27:04;2.35;;;0.90;;
65358;SDS011;52491;45.900;6.346;2023-07-13T08:29:30;2.05;;;0.75;;
65358;SDS011;52491;45.900;6.346;2023-07-13T08:31:59;1.17;;;0.60;;
65358;SDS011;52491;45.900;6.346;2023-07-13T08:34:26;0.80;;;0.52;;
65358;SDS011;52491;45.900;6.346;2023-07-13T08:36:52;1.60;;;0.70;;
65358;SDS011;52491;45.900;6.346;2023-07-13T08:39:17;1.48;;;0.60;;
65358;SDS011;52491;45.900;6.346;2023-07-13T08:41:49;6.95;;;1.05;;
65358;SDS011;52491;45.900;6.346;2023-07-13T08:44:28;2.22;;;0.88;;
65358;SDS011;52491;45.900;6.346;2023-07-13T08:47:03;3.60;;;0.75;;
65358;SDS011;52491;45.900;6.346;2023-07-13T08:49:30;1.60;;;0.90;;
65358;SDS011;52491;45.900;6.346;2023-07-13T08:52:08;3.42;;;0.55;;
65358;SDS011;52491;45.900;6.346;2023-07-13T08:54:45;2.08;;;0.77;;
65358;SDS011;52491;45.900;6.346;2023-07-13T08:57:17;3.63;;;0.73;;
65358;SDS011;52491;45.900;6.346;2023-07-13T08:59:45;2.90;;;0.80;;
65358;SDS011;52491;45.900;6.346;2023-07-13T09:04:40;1.10;;;0.77;;
65358;SDS011;52491;45.900;6.346;2023-07-13T09:07:14;0.60;;;0.60;;
65358;SDS011;52491;45.900;6.346;2023-07-13T09:10:02;1.63;;;0.60;;
65358;SDS011;52491;45.900;6.346;2023-07-13T09:15:31;0.63;;;0.63;;
65358;SDS011;52491;45.900;6.346;2023-07-13T09:18:04;1.20;;;0.57;;
65358;SDS011;52491;45.900;6.346;2023-07-13T09:20:58;4.75;;;0.60;;
65358;SDS011;52491;45.900;6.346;2023-07-13T09:23:29;0.95;;;0.60;;
65358;SDS011;52491;45.900;6.346;2023-07-13T09:26:06;0.70;;;0.52;;
65358;SDS011;52491;45.900;6.346;2023-07-13T09:28:47;0.60;;;0.55;;
65358;SDS011;52491;45.900;6.346;2023-07-13T09:31:23;0.63;;;0.43;;
65358;SDS011;52491;45.900;6.346;2023-07-13T09:33:54;6.10;;;0.90;;
65358;SDS011;52491;45.900;6.346;2023-07-13T09:36:21;0.95;;;0.68;;
65358;SDS011;52491;45.900;6.346;2023-07-13T09:38:49;0.50;;;0.50;;
65358;SDS011;52491;45.900;6.346;2023-07-13T09:44:07;0.85;;;0.57;;
65358;SDS011;52491;45.900;6.346;2023-07-13T09:46:34;0.88;;;0.82;;
65358;SDS011;52491;45.900;6.346;2023-07-13T09:49:00;2.42;;;0.82;;
65358;SDS011;52491;45.900;6.346;2023-07-13T09:51:26;0.80;;;0.68;;
65358;SDS011;52491;45.900;6.346;2023-07-13T09:53:51;2.47;;;0.95;;
65358;SDS011;52491;45.900;6.346;2023-07-13T09:56:21;0.70;;;0.63;;
65358;SDS011;52491;45.900;6.346;2023-07-13T09:58:48;4.72;;;0.80;;
65358;SDS011;52491;45.900;6.346;2023-07-13T10:01:15;1.67;;;0.65;;
65358;SDS011;52491;45.900;6.346;2023-07-13T10:03:51;1.30;;;0.65;;
65358;SDS011;52491;45.900;6.346;2023-07-13T10:06:19;1.20;;;0.50;;
65358;SDS011;52491;45.900;6.346;2023-07-13T10:08:47;2.03;;;0.68;;
65358;SDS011;52491;45.900;6.346;2023-07-13T10:11:23;1.88;;;0.70;;
65358;SDS011;52491;45.900;6.346;2023-07-13T10:13:56;2.33;;;0.93;;
65358;SDS011;52491;45.900;6.346;2023-07-13T10:16:28;3.47;;;0.55;;
65358;SDS011;52491;45.900;6.346;2023-07-13T10:19:02;5.32;;;1.20;;
65358;SDS011;52491;45.900;6.346;2023-07-13T10:21:35;1.60;;;0.93;;
65358;SDS011;52491;45.900;6.346;2023-07-13T10:24:53;1.67;;;0.70;;
65358;SDS011;52491;45.900;6.346;2023-07-13T10:27:20;1.35;;;0.75;;
65358;SDS011;52491;45.900;6.346;2023-07-13T10:30:01;2.47;;;1.17;;
65358;SDS011;52491;45.900;6.346;2023-07-13T10:32:39;9.57;;;1.48;;
65358;SDS011;52491;45.900;6.346;2023-07-13T10:35:05;3.25;;;0.80;;
65358;SDS011;52491;45.900;6.346;2023-07-13T10:41:02;1.83;;;1.13;;
65358;SDS011;52491;45.900;6.346;2023-07-13T10:43:35;0.93;;;0.88;;
65358;SDS011;52491;45.900;6.346;2023-07-13T10:46:09;2.80;;;1.13;;
65358;SDS011;52491;45.900;6.346;2023-07-13T10:48:40;3.85;;;0.75;;
65358;SDS011;52491;45.900;6.346;2023-07-13T10:51:10;0.60;;;0.57;;
65358;SDS011;52491;45.900;6.346;2023-07-13T10:53:40;2.22;;;0.82;;
65358;SDS011;52491;45.900;6.346;2023-07-13T10:56:19;1.45;;;0.82;;
65358;SDS011;52491;45.900;6.346;2023-07-13T10:59:09;1.83;;;0.75;;
65358;SDS011;52491;45.900;6.346;2023-07-13T11:01:46;1.25;;;0.88;;
65358;SDS011;52491;45.900;6.346;2023-07-13T11:04:22;2.17;;;1.20;;
65358;SDS011;52491;45.900;6.346;2023-07-13T11:06:52;30.80;;;9.23;;
65358;SDS011;52491;45.900;6.346;2023-07-13T11:12:02;21.45;;;9.27;;
65358;SDS011;52491;45.900;6.346;2023-07-13T11:15:26;20.98;;;7.28;;
65358;SDS011;52491;45.900;6.346;2023-07-13T11:17:29;21.00;;;7.63;;
65358;SDS011;52491;45.900;6.346;2023-07-13T11:22:44;17.52;;;7.20;;
65358;SDS011;52491;45.900;6.346;2023-07-13T11:25:29;19.73;;;7.93;;
65358;SDS011;52491;45.900;6.346;2023-07-13T11:30:47;14.63;;;6.95;;
65358;SDS011;52491;45.900;6.346;2023-07-13T11:36:05;17.30;;;7.85;;
65358;SDS011;52491;45.900;6.346;2023-07-13T11:38:47;16.77;;;8.73;;
65358;SDS011;52491;45.900;6.346;2023-07-13T11:41:35;19.15;;;7.72;;
65358;SDS011;52491;45.900;6.346;2023-07-13T11:44:13;11.95;;;6.97;;
65358;SDS011;52491;45.900;6.346;2023-07-13T11:46:46;13.20;;;6.95;;
65358;SDS011;52491;45.900;6.346;2023-07-13T11:49:17;12.00;;;6.38;;
65358;SDS011;52491;45.900;6.346;2023-07-13T11:51:47;15.57;;;7.90;;
65358;SDS011;52491;45.900;6.346;2023-07-13T11:54:41;19.73;;;8.02;;
65358;SDS011;52491;45.900;6.346;2023-07-13T11:57:27;12.68;;;7.05;;
65358;SDS011;52491;45.900;6.346;2023-07-13T11:59:56;15.90;;;7.63;;
65358;SDS011;52491;45.900;6.346;2023-07-13T12:02:33;11.57;;;6.15;;
65358;SDS011;52491;45.900;6.346;2023-07-13T12:05:03;11.50;;;6.30;;
65358;SDS011;52491;45.900;6.346;2023-07-13T12:07:31;13.52;;;6.40;;
65358;SDS011;52491;45.900;6.346;2023-07-13T12:10:02;12.80;;;5.95;;
65358;SDS011;52491;45.900;6.346;2023-07-13T12:12:37;15.48;;;6.10;;
65358;SDS011;52491;45.900;6.346;2023-07-13T12:15:06;9.43;;;6.00;;
65358;SDS011;52491;45.900;6.346;2023-07-13T12:17:33;16.45;;;6.80;;
65358;SDS011;52491;45.900;6.346;2023-07-13T12:20:00;13.18;;;6.03;;
65358;SDS011;52491;45.900;6.346;2023-07-13T12:22:46;15.18;;;6.25;;
65358;SDS011;52491;45.900;6.346;2023-07-13T12:25:12;10.68;;;6.28;;
65358;SDS011;52491;45.900;6.346;2023-07-13T12:27:39;10.82;;;5.68;;
65358;SDS011;52491;45.900;6.346;2023-07-13T12:30:06;10.98;;;4.60;;
65358;SDS011;52491;45.900;6.346;2023-07-13T12:33:02;13.88;;;5.65;;
65358;SDS011;52491;45.900;6.346;2023-07-13T12:35:39;7.90;;;4.80;;
65358;SDS011;52491;45.900;6.346;2023-07-13T12:38:10;14.40;;;4.95;;
65358;SDS011;52491;45.900;6.346;2023-07-13T12:40:36;7.63;;;4.35;;
65358;SDS011;52491;45.900;6.346;2023-07-13T12:43:03;7.55;;;4.13;;
65358;SDS011;52491;45.900;6.346;2023-07-13T12:45:32;10.27;;;5.53;;
65358;SDS011;52491;45.900;6.346;2023-07-13T12:48:19;7.97;;;4.63;;
65358;SDS011;52491;45.900;6.346;2023-07-13T12:50:46;10.82;;;4.82;;
65358;SDS011;52491;45.900;6.346;2023-07-13T12:53:16;8.02;;;4.70;;
65358;SDS011;52491;45.900;6.346;2023-07-13T12:55:53;10.10;;;4.60;;
65358;SDS011;52491;45.900;6.346;2023-07-13T12:58:27;5.85;;;3.53;;
65358;SDS011;52491;45.900;6.346;2023-07-13T13:00:54;9.25;;;3.50;;
65358;SDS011;52491;45.900;6.346;2023-07-13T13:03:24;9.57;;;4.30;;
65358;SDS011;52491;45.900;6.346;2023-07-13T13:05:57;5.70;;;3.97;;
65358;SDS011;52491;45.900;6.346;2023-07-13T13:08:29;8.32;;;3.95;;
65358;SDS011;52491;45.900;6.346;2023-07-13T13:10:55;7.88;;;3.88;;
65358;SDS011;52491;45.900;6.346;2023-07-13T13:13:21;5.35;;;3.58;;
65358;SDS011;52491;45.900;6.346;2023-07-13T13:15:47;5.30;;;3.58;;
65358;SDS011;52491;45.900;6.346;2023-07-13T13:18:19;6.53;;;3.60;;
65358;SDS011;52491;45.900;6.346;2023-07-13T13:20:46;6.13;;;3.38;;
65358;SDS011;52491;45.900;6.346;2023-07-13T13:23:13;7.85;;;3.10;;
65358;SDS011;52491;45.900;6.346;2023-07-13T13:25:42;5.53;;;2.55;;
65358;SDS011;52491;45.900;6.346;2023-07-13T13:28:13;4.63;;;2.65;;
65358;SDS011;52491;45.900;6.346;2023-07-13T13:30:44;5.18;;;3.05;;
65358;SDS011;52491;45.900;6.346;2023-07-13T13:33:12;6.60;;;2.42;;
65358;SDS011;52491;45.900;6.346;2023-07-13T13:35:40;7.82;;;3.10;;
65358;SDS011;52491;45.900;6.346;2023-07-13T13:38:13;5.85;;;3.15;;
65358;SDS011;52491;45.900;6.346;2023-07-13T13:40:42;4.22;;;2.50;;
65358;SDS011;52491;45.900;6.346;2023-07-13T13:45:52;3.70;;;1.95;;
65358;SDS011;52491;45.900;6.346;2023-07-13T13:48:23;5.55;;;2.85;;
65358;SDS011;52491;45.900;6.346;2023-07-13T13:50:56;4.40;;;2.35;;
65358;SDS011;52491;45.900;6.346;2023-07-13T13:53:22;2.17;;;1.70;;
65358;SDS011;52491;45.900;6.346;2023-07-13T13:55:48;3.15;;;2.25;;
65358;SDS011;52491;45.900;6.346;2023-07-13T13:58:15;4.15;;;2.45;;
65358;SDS011;52491;45.900;6.346;2023-07-13T14:00:41;4.20;;;1.67;;
65358;SDS011;52491;45.900;6.346;2023-07-13T14:03:20;3.20;;;2.10;;
65358;SDS011;52491;45.900;6.346;2023-07-13T14:05:47;3.10;;;1.83;;
65358;SDS011;52491;45.900;6.346;2023-07-13T14:08:18;2.03;;;1.60;;
65358;SDS011;52491;45.900;6.346;2023-07-13T14:10:46;2.13;;;1.88;;
65358;SDS011;52491;45.900;6.346;2023-07-13T14:13:22;2.47;;;1.33;;
65358;SDS011;52491;45.900;6.346;2023-07-13T14:15:51;2.72;;;2.03;;
65358;SDS011;52491;45.900;6.346;2023-07-13T14:18:18;2.35;;;1.38;;
65358;SDS011;52491;45.900;6.346;2023-07-13T14:20:47;2.25;;;1.60;;
65358;SDS011;52491;45.900;6.346;2023-07-13T14:23:14;4.72;;;1.85;;
65358;SDS011;52491;45.900;6.346;2023-07-13T14:25:41;4.72;;;2.30;;
65358;SDS011;52491;45.900;6.346;2023-07-13T14:28:41;4.43;;;1.15;;
65358;SDS011;52491;45.900;6.346;2023-07-13T14:31:07;1.95;;;1.42;;
65358;SDS011;52491;45.900;6.346;2023-07-13T14:33:33;1.70;;;1.30;;
65358;SDS011;52491;45.900;6.346;2023-07-13T14:35:58;2.78;;;1.75;;
65358;SDS011;52491;45.900;6.346;2023-07-13T14:38:24;1.63;;;1.50;;
65358;SDS011;52491;45.900;6.346;2023-07-13T14:40:49;2.25;;;1.30;;
65358;SDS011;52491;45.900;6.346;2023-07-13T14:43:15;3.58;;;1.52;;
65358;SDS011;52491;45.900;6.346;2023-07-13T14:45:49;2.35;;;1.23;;
65358;SDS011;52491;45.900;6.346;2023-07-13T14:48:23;1.45;;;1.10;;
65358;SDS011;52491;45.900;6.346;2023-07-13T14:50:58;1.95;;;1.20;;
65358;SDS011;52491;45.900;6.346;2023-07-13T14:53:25;3.80;;;1.65;;
65358;SDS011;52491;45.900;6.346;2023-07-13T14:55:54;1.92;;;1.08;;
65358;SDS011;52491;45.900;6.346;2023-07-13T14:58:20;2.72;;;1.30;;
65358;SDS011;52491;45.900;6.346;2023-07-13T15:00:46;1.05;;;0.82;;
65358;SDS011;52491;45.900;6.346;2023-07-13T15:03:20;3.22;;;1.27;;
65358;SDS011;52491;45.900;6.346;2023-07-13T15:05:48;1.90;;;1.20;;
65358;SDS011;52491;45.900;6.346;2023-07-13T15:08:14;1.45;;;1.20;;
65358;SDS011;52491;45.900;6.346;2023-07-13T15:10:40;1.70;;;1.35;;
65358;SDS011;52491;45.900;6.346;2023-07-13T15:13:13;2.60;;;1.38;;
65358;SDS011;52491;45.900;6.346;2023-07-13T15:15:40;0.98;;;0.70;;
65358;SDS011;52491;45.900;6.346;2023-07-13T15:18:11;2.50;;;1.30;;
65358;SDS011;52491;45.900;6.346;2023-07-13T15:20:37;1.52;;;0.70;;
65358;SDS011;52491;45.900;6.346;2023-07-13T15:23:04;1.48;;;0.90;;
65358;SDS011;52491;45.900;6.346;2023-07-13T15:25:30;1.42;;;0.90;;